createdAt,value
2019-02-19T00:00:08.661Z,4.60
2019-02-19T00:02:39.153Z,4.60
2019-02-19T00:05:09.433Z,4.60
2019-02-19T00:07:39.737Z,4.60
2019-02-19T00:10:10.161Z,4.50
2019-02-19T00:12:40.772Z,4.60
2019-02-19T00:15:11.399Z,4.60
2019-02-19T00:17:42.073Z,4.60
2019-02-19T00:20:12.564Z,4.50
2019-02-19T00:22:43.109Z,4.50
2019-02-19T00:25:13.453Z,4.50
2019-02-19T00:27:43.857Z,4.50
2019-02-19T00:30:14.134Z,4.50
2019-02-19T00:32:44.621Z,4.50
2019-02-19T00:35:15.051Z,4.40
2019-02-19T00:37:45.524Z,4.50
2019-02-19T00:40:15.805Z,4.50
2019-02-19T00:42:46.314Z,4.40
2019-02-19T00:45:17.123Z,4.40
2019-02-19T00:47:47.616Z,4.40
2019-02-19T00:50:17.917Z,4.40
2019-02-19T00:52:48.333Z,4.50
2019-02-19T00:55:18.732Z,4.50
2019-02-19T00:57:48.963Z,4.50
2019-02-19T01:00:19.518Z,4.50
2019-02-19T01:02:49.820Z,4.40
2019-02-19T01:05:20.176Z,4.50
2019-02-19T01:07:50.844Z,4.50
2019-02-19T01:10:21.410Z,4.50
2019-02-19T01:12:51.910Z,4.50
2019-02-19T01:15:25.465Z,4.50
2019-02-19T01:17:54.668Z,4.50
2019-02-19T01:20:24.894Z,4.50
2019-02-19T01:22:55.197Z,4.40
2019-02-19T01:25:25.838Z,4.40
2019-02-19T01:27:56.377Z,4.40
2019-02-19T01:30:26.857Z,4.40
2019-02-19T01:32:57.533Z,4.40
2019-02-19T01:35:27.821Z,4.40
2019-02-19T01:37:58.261Z,4.40
2019-02-19T01:40:28.553Z,4.40
2019-02-19T01:42:58.845Z,4.40
2019-02-19T01:45:34.005Z,4.40
2019-02-19T01:48:01.285Z,4.40
2019-02-19T01:50:31.526Z,4.40
2019-02-19T01:53:02.099Z,4.50
2019-02-19T01:55:32.632Z,4.50
2019-02-19T01:58:02.776Z,4.50
2019-02-19T02:00:33.213Z,4.50
2019-02-19T02:03:03.681Z,4.50
2019-02-19T02:05:34.089Z,4.50
2019-02-19T02:08:04.741Z,4.50
2019-02-19T02:10:35.292Z,4.50
2019-02-19T02:13:05.532Z,4.40
2019-02-19T02:15:42.531Z,4.40
2019-02-19T02:18:08.022Z,4.50
2019-02-19T02:20:40.301Z,4.50
2019-02-19T02:23:10.673Z,4.50
2019-02-19T02:25:41.482Z,4.40
2019-02-19T02:28:12.102Z,4.40
2019-02-19T02:30:42.400Z,4.40
2019-02-19T02:33:12.965Z,4.40
2019-02-19T02:35:43.388Z,4.40
2019-02-19T02:38:13.876Z,4.40
2019-02-19T02:40:44.025Z,4.40
2019-02-19T02:43:14.446Z,4.40
2019-02-19T02:45:52.709Z,4.40
2019-02-19T02:48:16.930Z,4.40
2019-02-19T02:50:47.425Z,4.40
2019-02-19T02:53:17.815Z,4.40
2019-02-19T02:55:48.313Z,4.40
2019-02-19T02:58:18.713Z,4.40
2019-02-19T03:00:49.029Z,4.40
2019-02-19T03:03:19.601Z,4.40
2019-02-19T03:05:59.278Z,4.40
2019-02-19T03:08:29.677Z,4.40
2019-02-19T03:11:00.144Z,4.40
2019-02-19T03:13:30.462Z,4.40
2019-02-19T03:16:02.684Z,4.40
2019-02-19T03:18:33.045Z,4.40
2019-02-19T03:21:03.552Z,4.40
2019-02-19T03:23:33.851Z,4.40
2019-02-19T03:26:04.133Z,4.40
2019-02-19T03:28:34.817Z,4.40
2019-02-19T03:31:05.203Z,4.40
2019-02-19T03:33:35.602Z,4.40
2019-02-19T03:36:06.069Z,4.50
2019-02-19T03:38:36.550Z,4.40
2019-02-19T03:41:07.233Z,4.40
2019-02-19T03:43:37.786Z,4.30
2019-02-19T03:46:12.012Z,4.20
2019-02-19T03:48:40.576Z,4.30
2019-02-19T03:51:11.491Z,4.30
2019-02-19T03:53:42.021Z,4.40
2019-02-19T03:56:12.645Z,4.40
2019-02-19T03:58:43.067Z,4.40
2019-02-19T04:01:13.506Z,4.40
2019-02-19T04:03:45.526Z,4.40
2019-02-19T04:06:15.978Z,4.40
2019-02-19T04:08:46.374Z,4.50
2019-02-19T04:11:16.877Z,4.50
2019-02-19T04:13:47.377Z,4.60
2019-02-19T04:16:21.231Z,4.60
2019-02-19T04:18:49.624Z,4.50
2019-02-19T04:21:20.303Z,4.60
2019-02-19T04:23:50.958Z,4.70
2019-02-19T04:26:21.557Z,4.70
2019-02-19T04:28:51.944Z,4.80
2019-02-19T04:31:22.509Z,4.80
2019-02-19T04:33:52.985Z,4.80
2019-02-19T04:36:23.346Z,4.80
2019-02-19T04:38:53.854Z,4.90
2019-02-19T04:41:24.133Z,4.90
2019-02-19T04:43:54.630Z,4.90
2019-02-19T04:46:31.651Z,5.00
2019-02-19T04:48:56.939Z,5.00
2019-02-19T04:51:27.437Z,5.00
2019-02-19T04:53:57.928Z,5.00
2019-02-19T04:56:28.218Z,5.00
2019-02-19T04:58:58.793Z,5.10
2019-02-19T05:01:29.430Z,5.10
2019-02-19T05:03:59.934Z,5.10
2019-02-19T05:06:30.319Z,5.10
2019-02-19T05:09:00.878Z,5.10
2019-02-19T05:11:31.378Z,5.10
2019-02-19T05:14:01.959Z,5.20
2019-02-19T05:16:40.449Z,5.20
2019-02-19T05:19:04.750Z,5.20
2019-02-19T05:21:35.253Z,5.30
2019-02-19T05:24:05.890Z,5.30
2019-02-19T05:26:36.576Z,5.30
2019-02-19T05:29:06.961Z,5.40
2019-02-19T05:31:39.473Z,5.40
2019-02-19T05:34:09.885Z,5.40
2019-02-19T05:36:40.463Z,5.40
2019-02-19T05:39:11.086Z,5.40
2019-02-19T05:41:41.661Z,5.40
2019-02-19T05:44:12.151Z,5.50
2019-02-19T05:46:49.641Z,5.50
2019-02-19T05:49:14.801Z,5.50
2019-02-19T05:51:45.298Z,5.50
2019-02-19T05:54:15.521Z,5.50
2019-02-19T05:56:45.945Z,5.50
2019-02-19T05:59:16.243Z,5.50
2019-02-19T06:01:46.605Z,5.50
2019-02-19T06:04:17.081Z,5.50
2019-02-19T06:06:47.639Z,5.50
2019-02-19T06:09:18.222Z,5.50
2019-02-19T06:11:48.775Z,5.60
2019-02-19T06:14:19.387Z,5.60
2019-02-19T06:16:58.107Z,5.60
2019-02-19T06:19:22.037Z,5.60
2019-02-19T06:21:52.447Z,5.60
2019-02-19T06:24:22.897Z,5.60
2019-02-19T06:26:53.315Z,5.60
2019-02-19T06:29:23.831Z,5.60
2019-02-19T06:31:54.466Z,5.60
2019-02-19T06:34:24.868Z,5.60
2019-02-19T06:36:55.420Z,5.60
2019-02-19T06:39:25.924Z,5.60
2019-02-19T06:41:56.205Z,5.60
2019-02-19T06:44:26.711Z,5.70
2019-02-19T06:46:57.384Z,5.70
2019-02-19T06:49:27.772Z,5.70
2019-02-19T06:51:58.096Z,5.70
2019-02-19T06:54:28.585Z,5.70
2019-02-19T06:56:59.061Z,5.70
2019-02-19T06:59:29.455Z,5.70
2019-02-19T07:02:04.349Z,5.70
2019-02-19T07:04:36.289Z,5.70
2019-02-19T07:07:07.157Z,5.70
2019-02-19T07:09:37.557Z,5.80
2019-02-19T07:12:08.089Z,5.80
2019-02-19T07:14:38.476Z,5.80
2019-02-19T07:17:15.434Z,5.80
2019-02-19T07:19:41.497Z,5.80
2019-02-19T07:22:12.063Z,5.80
2019-02-19T07:24:42.554Z,5.80
2019-02-19T07:27:13.125Z,5.70
2019-02-19T07:29:43.729Z,5.80
2019-02-19T07:32:14.904Z,5.80
2019-02-19T07:34:45.388Z,5.80
2019-02-19T07:37:15.820Z,5.80
2019-02-19T07:39:46.321Z,5.90
2019-02-19T07:42:16.805Z,5.80
2019-02-19T07:44:47.469Z,5.90
2019-02-19T07:47:24.367Z,5.80
2019-02-19T07:49:50.296Z,5.80
2019-02-19T07:52:20.526Z,5.90
2019-02-19T07:54:51.395Z,5.90
2019-02-19T07:57:21.884Z,5.90
2019-02-19T07:59:52.195Z,5.90
2019-02-19T08:02:22.689Z,5.90
2019-02-19T08:04:53.127Z,6.00
2019-02-19T08:07:23.715Z,6.00
2019-02-19T08:09:54.113Z,6.00
2019-02-19T08:12:26.245Z,6.00
2019-02-19T08:14:56.881Z,5.90
2019-02-19T08:17:33.087Z,6.00
2019-02-19T08:19:59.509Z,6.00
2019-02-19T08:22:30.009Z,6.10
2019-02-19T08:25:00.436Z,6.10
2019-02-19T08:27:30.852Z,6.10
2019-02-19T08:30:01.285Z,6.00
2019-02-19T08:32:31.775Z,6.10
2019-02-19T08:35:02.374Z,6.10
2019-02-19T08:37:32.598Z,6.10
2019-02-19T08:40:03.170Z,6.10
2019-02-19T08:42:33.655Z,6.20
2019-02-19T08:45:05.233Z,6.10
2019-02-19T08:47:42.292Z,6.10
2019-02-19T08:50:08.564Z,6.10
2019-02-19T08:52:39.133Z,6.20
2019-02-19T08:55:09.821Z,6.10
2019-02-19T08:57:40.211Z,6.20
2019-02-19T09:00:11.953Z,6.20
2019-02-19T09:02:42.315Z,6.20
2019-02-19T09:05:12.998Z,6.20
2019-02-19T09:07:43.378Z,6.30
2019-02-19T09:10:14.653Z,6.30
2019-02-19T09:12:45.042Z,6.30
2019-02-19T09:15:15.529Z,6.30
2019-02-19T09:17:51.921Z,6.40
2019-02-19T09:20:18.003Z,6.40
2019-02-19T09:22:48.501Z,6.50
2019-02-19T09:25:19.169Z,6.40
2019-02-19T09:27:49.676Z,6.40
2019-02-19T09:30:20.182Z,6.40
2019-02-19T09:32:50.752Z,6.40
2019-02-19T09:35:21.037Z,6.50
2019-02-19T09:37:51.574Z,6.40
2019-02-19T09:40:22.272Z,6.40
2019-02-19T09:42:52.692Z,6.50
2019-02-19T09:45:23.266Z,6.50
2019-02-19T09:48:00.970Z,6.50
2019-02-19T09:50:25.952Z,6.50
2019-02-19T09:53:00.011Z,6.40
2019-02-19T09:55:28.493Z,6.40
2019-02-19T09:57:59.080Z,6.40
2019-02-19T10:00:29.705Z,6.40
2019-02-19T10:03:00.295Z,6.40
2019-02-19T10:05:30.649Z,6.40
2019-02-19T10:08:01.390Z,6.40
2019-02-19T10:10:31.891Z,6.40
2019-02-19T10:13:02.439Z,6.50
2019-02-19T10:15:32.937Z,6.50
2019-02-19T10:18:10.065Z,6.50
2019-02-19T10:20:35.329Z,6.50
2019-02-19T10:23:05.661Z,6.40
2019-02-19T10:25:36.150Z,6.40
2019-02-19T10:28:06.589Z,6.50
2019-02-19T10:30:37.168Z,6.40
2019-02-19T10:33:07.773Z,6.40
2019-02-19T10:35:38.258Z,6.50
2019-02-19T10:38:08.829Z,6.50
2019-02-19T10:40:39.337Z,6.50
2019-02-19T10:43:09.617Z,6.50
2019-02-19T10:45:40.133Z,6.50
2019-02-19T10:48:18.620Z,6.50
2019-02-19T10:50:42.609Z,6.50
2019-02-19T10:53:12.821Z,6.50
2019-02-19T10:55:43.193Z,6.40
2019-02-19T10:58:22.280Z,6.40
2019-02-19T11:00:45.945Z,6.40
2019-02-19T11:03:16.229Z,6.50
2019-02-19T11:05:46.721Z,6.50
2019-02-19T11:08:17.007Z,6.40
2019-02-19T11:10:47.648Z,6.40
2019-02-19T11:13:18.057Z,6.40
2019-02-19T11:15:48.487Z,6.30
2019-02-19T11:18:27.826Z,6.30
2019-02-19T11:20:51.102Z,6.30
2019-02-19T11:23:21.756Z,6.30
2019-02-19T11:25:52.341Z,6.30
2019-02-19T11:28:22.650Z,6.40
2019-02-19T11:30:53.151Z,6.40
2019-02-19T11:33:23.680Z,6.40
2019-02-19T11:35:54.847Z,6.30
2019-02-19T11:38:25.623Z,6.30
2019-02-19T11:40:55.920Z,6.30
2019-02-19T11:43:26.321Z,6.30
2019-02-19T11:45:56.554Z,6.30
2019-02-19T11:48:26.995Z,6.30
2019-02-19T11:50:57.445Z,6.30
2019-02-19T11:53:27.741Z,6.30
2019-02-19T11:55:58.149Z,6.30
2019-02-19T11:58:28.725Z,6.30
2019-02-19T12:00:59.337Z,6.30
2019-02-19T12:03:29.752Z,6.30
2019-02-19T12:06:00.062Z,6.30
2019-02-19T12:08:38.645Z,6.30
2019-02-19T12:11:02.977Z,6.30
2019-02-19T12:13:33.900Z,6.30
2019-02-19T12:16:04.304Z,6.30
2019-02-19T12:18:34.591Z,6.30
2019-02-19T12:21:05.090Z,6.30
2019-02-19T12:23:35.424Z,6.30
2019-02-19T12:26:05.805Z,6.30
2019-02-19T12:28:36.235Z,6.30
2019-02-19T12:31:06.801Z,6.30
2019-02-19T12:33:37.169Z,6.40
2019-02-19T12:36:07.985Z,6.50
2019-02-19T12:38:38.528Z,6.60
2019-02-19T12:41:09.092Z,6.70
2019-02-19T12:43:39.579Z,6.70
2019-02-19T12:46:10.081Z,6.70
2019-02-19T12:48:40.597Z,6.80
2019-02-19T12:51:11.190Z,6.70
2019-02-19T12:53:42.218Z,6.70
2019-02-19T12:56:12.605Z,6.70
2019-02-19T12:58:43.176Z,6.70
2019-02-19T13:01:13.745Z,6.70
2019-02-19T13:03:44.101Z,6.70
2019-02-19T13:06:14.309Z,6.70
2019-02-19T13:08:44.551Z,6.70
2019-02-19T13:11:14.932Z,6.70
2019-02-19T13:13:45.368Z,6.70
2019-02-19T13:16:15.681Z,6.80
2019-02-19T13:18:45.996Z,6.80
2019-02-19T13:21:16.297Z,6.80
2019-02-19T13:23:46.688Z,6.80
2019-02-19T13:26:17.157Z,6.90
2019-02-19T13:28:47.763Z,6.90
2019-02-19T13:31:18.061Z,7.00
2019-02-19T13:33:48.661Z,7.10
2019-02-19T13:36:19.392Z,7.20
2019-02-19T13:38:50.046Z,7.20
2019-02-19T13:41:20.345Z,7.20
2019-02-19T13:43:50.564Z,7.20
2019-02-19T13:46:22.156Z,7.20
2019-02-19T13:48:52.489Z,7.20
2019-02-19T13:51:23.217Z,7.10
2019-02-19T13:53:55.345Z,7.00
2019-02-19T13:56:25.860Z,7.00
2019-02-19T13:58:56.041Z,7.00
2019-02-19T14:01:34.271Z,7.10
2019-02-19T14:04:08.676Z,7.00
2019-02-19T14:06:40.638Z,7.00
2019-02-19T14:09:10.959Z,7.10
2019-02-19T14:11:41.421Z,7.10
2019-02-19T14:14:19.421Z,7.10
2019-02-19T14:16:52.149Z,7.10
2019-02-19T14:19:24.173Z,7.00
2019-02-19T14:21:56.217Z,7.00
2019-02-19T14:24:30.782Z,7.00
2019-02-19T14:27:11.825Z,6.90
2019-02-19T14:29:59.555Z,6.90
2019-02-19T14:32:31.713Z,6.80
2019-02-19T14:35:20.625Z,6.80
2019-02-19T14:37:55.240Z,6.80
2019-02-19T14:40:30.224Z,6.80
2019-02-19T14:43:07.849Z,6.70
2019-02-19T14:45:40.054Z,6.70
2019-02-19T14:48:14.854Z,6.70
2019-02-19T14:50:46.848Z,6.70
2019-02-19T14:53:21.844Z,6.60
2019-02-19T14:55:59.912Z,6.60
2019-02-19T14:58:31.821Z,6.60
2019-02-19T15:01:03.956Z,6.60
2019-02-19T15:03:38.776Z,6.50
2019-02-19T15:06:17.011Z,6.50
2019-02-19T15:08:55.093Z,6.50
2019-02-19T15:11:27.060Z,6.50
2019-02-19T15:13:59.001Z,6.50
2019-02-19T15:16:30.864Z,6.50
2019-02-19T15:19:19.895Z,6.40
2019-02-19T15:22:06.456Z,6.40
2019-02-19T15:24:47.485Z,6.40
2019-02-19T15:27:19.525Z,6.40
2019-02-19T15:29:56.865Z,6.30
2019-02-19T15:32:44.273Z,6.30
2019-02-19T15:35:27.960Z,6.20
2019-02-19T15:37:59.809Z,6.20
2019-02-19T15:40:34.743Z,6.20
2019-02-19T15:43:06.920Z,6.20
2019-02-19T15:45:47.799Z,6.20
2019-02-19T15:48:28.765Z,6.10
2019-02-19T15:51:03.446Z,6.10
2019-02-19T15:53:44.672Z,6.20
2019-02-19T15:56:29.041Z,6.10
2019-02-19T15:59:16.300Z,6.10
2019-02-19T16:01:51.255Z,6.10
2019-02-19T16:04:26.331Z,6.00
2019-02-19T16:06:58.442Z,6.00
2019-02-19T16:09:30.506Z,6.00
2019-02-19T16:12:05.873Z,6.00
2019-02-19T16:14:43.693Z,6.00
2019-02-19T16:17:32.401Z,6.00
2019-02-19T16:20:10.325Z,6.00
2019-02-19T16:22:42.461Z,6.00
2019-02-19T16:25:26.729Z,6.00
2019-02-19T16:28:04.284Z,6.00
2019-02-19T16:30:52.512Z,6.00
2019-02-19T16:33:33.113Z,6.00
2019-02-19T16:36:05.125Z,6.00
2019-02-19T16:38:53.306Z,6.00
2019-02-19T16:41:40.624Z,6.10
2019-02-19T16:44:19.030Z,6.00
2019-02-19T16:46:51.710Z,6.00
2019-02-19T16:49:40.368Z,6.00
2019-02-19T16:52:18.461Z,6.00
2019-02-19T16:54:50.589Z,6.00
2019-02-19T16:57:25.417Z,6.00
2019-02-19T16:59:59.997Z,6.00
2019-02-19T17:02:34.669Z,6.10
2019-02-19T17:05:10.957Z,6.00
2019-02-19T17:07:52.001Z,6.10
2019-02-19T17:10:39.202Z,6.00
2019-02-19T17:13:28.034Z,6.00
2019-02-19T17:16:15.160Z,6.00
2019-02-19T17:19:24.980Z,6.00
2019-02-19T17:21:57.017Z,6.00
2019-02-19T17:24:45.093Z,6.00
2019-02-19T17:27:32.973Z,6.00
2019-02-19T17:30:06.566Z,5.90
2019-02-19T17:32:41.710Z,5.90
2019-02-19T17:35:19.933Z,5.90
2019-02-19T17:37:54.993Z,5.90
2019-02-19T17:40:30.027Z,5.90
2019-02-19T17:43:11.298Z,5.90
2019-02-19T17:45:55.231Z,5.90
2019-02-19T17:48:36.188Z,5.90
2019-02-19T17:51:08.180Z,5.90
2019-02-19T17:53:56.637Z,5.90
2019-02-19T17:56:28.677Z,5.90
2019-02-19T17:59:09.662Z,5.90
2019-02-19T18:01:53.326Z,5.90
2019-02-19T18:04:25.278Z,5.90
2019-02-19T18:06:57.389Z,5.90
2019-02-19T18:09:35.212Z,5.90
2019-02-19T18:12:13.229Z,5.90
2019-02-19T18:14:45.157Z,5.90
2019-02-19T18:17:17.225Z,5.80
2019-02-19T18:19:47.861Z,5.90
2019-02-19T18:22:18.304Z,5.90
2019-02-19T18:24:48.651Z,5.90
2019-02-19T18:27:19.034Z,5.80
2019-02-19T18:29:49.465Z,5.90
2019-02-19T18:32:20.025Z,5.90
2019-02-19T18:34:50.222Z,5.90
2019-02-19T18:37:20.522Z,5.90
2019-02-19T18:39:50.894Z,5.80
2019-02-19T18:42:21.388Z,5.80
2019-02-19T18:44:51.685Z,5.80
2019-02-19T18:47:21.958Z,5.80
2019-02-19T18:49:52.314Z,5.80
2019-02-19T18:52:22.446Z,5.80
2019-02-19T18:54:52.655Z,5.80
2019-02-19T18:57:22.946Z,5.90
2019-02-19T18:59:53.435Z,5.80
2019-02-19T19:02:23.993Z,5.80
2019-02-19T19:04:54.121Z,5.90
2019-02-19T19:07:24.533Z,5.90
2019-02-19T19:09:55.013Z,5.80
2019-02-19T19:12:25.638Z,5.90
2019-02-19T19:14:56.047Z,5.90
2019-02-19T19:17:26.321Z,5.90
2019-02-19T19:19:56.721Z,5.90
2019-02-19T19:22:26.981Z,5.90
2019-02-19T19:24:57.260Z,5.90
2019-02-19T19:27:27.545Z,5.90
2019-02-19T19:29:57.757Z,5.90
2019-02-19T19:32:28.047Z,5.90
2019-02-19T19:34:58.332Z,5.90
2019-02-19T19:37:28.738Z,5.80
2019-02-19T19:39:59.357Z,5.80
2019-02-19T19:42:29.648Z,5.90
2019-02-19T19:44:59.933Z,5.80
2019-02-19T19:47:30.561Z,5.90
2019-02-19T19:50:03.199Z,5.90
2019-02-19T19:52:33.042Z,5.90
2019-02-19T19:55:03.790Z,5.90
2019-02-19T19:57:34.174Z,6.00
2019-02-19T20:00:07.825Z,5.90
2019-02-19T20:02:39.323Z,5.90
2019-02-19T20:05:10.667Z,5.90
2019-02-19T20:07:41.057Z,6.00
2019-02-19T20:10:13.378Z,5.90
2019-02-19T20:12:43.974Z,5.90
2019-02-19T20:15:14.405Z,5.90
2019-02-19T20:17:44.687Z,5.90
2019-02-19T20:20:14.908Z,5.80
2019-02-19T20:22:45.411Z,5.90
2019-02-19T20:25:15.921Z,5.90
2019-02-19T20:27:46.283Z,5.80
2019-02-19T20:30:17.141Z,5.80
2019-02-19T20:32:47.479Z,5.80
2019-02-19T20:35:17.773Z,5.80
2019-02-19T20:37:53.694Z,5.80
2019-02-19T20:40:20.221Z,5.80
2019-02-19T20:42:50.637Z,5.90
2019-02-19T20:45:20.925Z,5.90
2019-02-19T20:47:51.055Z,5.80
2019-02-19T20:50:21.645Z,5.80
2019-02-19T20:52:52.063Z,5.80
2019-02-19T20:55:22.452Z,5.80
2019-02-19T20:57:52.999Z,5.80
2019-02-19T21:00:23.466Z,5.90
2019-02-19T21:02:53.877Z,5.80
2019-02-19T21:05:24.181Z,5.80
2019-02-19T21:07:54.408Z,5.90
2019-02-19T21:10:24.914Z,5.90
2019-02-19T21:12:55.545Z,5.90
2019-02-19T21:15:25.822Z,5.90
2019-02-19T21:17:56.315Z,5.80
2019-02-19T21:20:26.788Z,5.80
2019-02-19T21:22:57.316Z,5.80
2019-02-19T21:25:31.053Z,5.90
2019-02-19T21:27:59.710Z,5.80
2019-02-19T21:30:30.114Z,5.90
2019-02-19T21:33:00.597Z,5.90
2019-02-19T21:35:30.896Z,5.90
2019-02-19T21:38:01.532Z,5.80
2019-02-19T21:40:31.997Z,5.90
2019-02-19T21:43:02.396Z,5.90
2019-02-19T21:45:32.614Z,5.90
2019-02-19T21:48:03.102Z,5.80
2019-02-19T21:50:33.565Z,5.90
2019-02-19T21:53:03.909Z,5.80
2019-02-19T21:55:34.393Z,5.80
2019-02-19T21:58:04.832Z,5.80
2019-02-19T22:00:35.041Z,5.80
2019-02-19T22:03:05.325Z,5.80
2019-02-19T22:05:35.680Z,5.80
2019-02-19T22:08:06.165Z,5.80
2019-02-19T22:10:36.569Z,5.80
2019-02-19T22:13:06.858Z,5.80
2019-02-19T22:15:37.324Z,5.80
2019-02-19T22:18:07.893Z,5.80
2019-02-19T22:20:42.917Z,5.80
2019-02-19T22:23:13.529Z,5.80
2019-02-19T22:25:43.833Z,5.80
2019-02-19T22:28:14.043Z,5.80
2019-02-19T22:30:44.324Z,5.80
2019-02-19T22:33:14.758Z,5.80
2019-02-19T22:35:45.044Z,5.70
2019-02-19T22:38:16.137Z,5.70
2019-02-19T22:40:54.820Z,5.70
2019-02-19T22:43:18.329Z,5.70
2019-02-19T22:45:48.733Z,5.70
2019-02-19T22:48:19.192Z,5.70
2019-02-19T22:50:49.557Z,5.70
2019-02-19T22:53:39.437Z,5.70
2019-02-19T22:56:11.473Z,5.70
2019-02-19T22:58:41.789Z,5.60
2019-02-19T23:01:21.773Z,5.60
2019-02-19T23:03:52.205Z,5.60
2019-02-19T23:06:22.404Z,5.60
2019-02-19T23:08:52.657Z,5.50
2019-02-19T23:11:22.928Z,5.50
2019-02-19T23:13:53.486Z,5.50
2019-02-19T23:16:23.849Z,5.40
2019-02-19T23:18:54.333Z,5.40
2019-02-19T23:21:24.621Z,5.40
2019-02-19T23:23:55.037Z,5.30
2019-02-19T23:26:25.525Z,5.30
2019-02-19T23:28:55.836Z,5.30
2019-02-19T23:31:26.465Z,5.30
2019-02-19T23:33:56.769Z,5.30
2019-02-19T23:36:34.717Z,5.30
2019-02-19T23:39:05.816Z,5.30
2019-02-19T23:41:36.026Z,5.20
2019-02-19T23:44:06.474Z,5.10
2019-02-19T23:46:37.028Z,5.10
2019-02-19T23:49:07.303Z,5.10
2019-02-19T23:51:37.713Z,5.10
2019-02-19T23:54:08.278Z,5.00
2019-02-19T23:56:38.661Z,5.00
2019-02-19T23:59:08.860Z,5.00
